createdAt,value
2023-02-18T00:00:34.153Z,8.80
2023-02-18T00:03:01.662Z,8.70
2023-02-18T00:05:29.904Z,8.70
2023-02-18T00:07:57.178Z,8.80
2023-02-18T00:10:24.289Z,8.70
2023-02-18T00:12:51.545Z,8.70
2023-02-18T00:15:18.755Z,8.70
2023-02-18T00:17:45.952Z,8.70
2023-02-18T00:20:13.960Z,8.80
2023-02-18T00:22:41.179Z,8.80
2023-02-18T00:25:08.579Z,8.80
2023-02-18T00:27:35.791Z,8.70
2023-02-18T00:30:04.241Z,8.70
2023-02-18T00:32:31.499Z,8.60
2023-02-18T00:34:58.656Z,8.50
2023-02-18T00:37:25.817Z,8.50
2023-02-18T00:39:52.994Z,8.50
2023-02-18T00:42:20.294Z,8.50
2023-02-18T00:44:47.548Z,8.60
2023-02-18T00:47:15.147Z,8.70
2023-02-18T00:49:42.402Z,8.70
2023-02-18T00:52:09.694Z,8.70
2023-02-18T00:54:36.820Z,8.60
2023-02-18T00:57:03.991Z,8.60
2023-02-18T00:59:31.163Z,8.60
2023-02-18T01:01:58.371Z,8.60
2023-02-18T01:04:25.800Z,8.60
2023-02-18T01:06:52.958Z,8.60
2023-02-18T01:09:20.055Z,8.60
2023-02-18T01:11:47.296Z,8.50
2023-02-18T01:14:14.516Z,8.50
2023-02-18T01:16:41.699Z,8.50
2023-02-18T01:19:09.367Z,8.50
2023-02-18T01:21:36.526Z,8.40
2023-02-18T01:24:03.906Z,8.40
2023-02-18T01:26:31.097Z,8.40
2023-02-18T01:28:58.194Z,8.30
2023-02-18T01:31:25.411Z,8.30
2023-02-18T01:33:52.670Z,8.40
2023-02-18T01:36:19.998Z,8.30
2023-02-18T01:38:47.133Z,8.40
2023-02-18T01:41:14.407Z,8.40
2023-02-18T01:43:41.598Z,8.50
2023-02-18T01:46:21.080Z,8.40
2023-02-18T01:48:53.788Z,8.30
2023-02-18T01:51:24.312Z,8.30
2023-02-18T01:53:54.415Z,8.20
2023-02-18T01:58:39.863Z,8.20
2023-02-18T02:03:22.795Z,8.20
2023-02-18T02:05:49.943Z,8.20
2023-02-18T02:08:17.359Z,8.20
2023-02-18T02:11:32.592Z,8.20
2023-02-18T02:14:07.537Z,8.20
2023-02-18T02:17:21.597Z,8.20
2023-02-18T02:19:51.388Z,8.10
2023-02-18T02:22:37.842Z,8.10
2023-02-18T02:25:32.089Z,8.10
2023-02-18T02:31:48.440Z,8.00
2023-02-18T02:34:15.535Z,8.00
2023-02-18T02:36:54.821Z,8.10
2023-02-18T02:39:31.342Z,8.10
2023-02-18T02:42:04.897Z,8.10
2023-02-18T02:44:39.355Z,8.10
2023-02-18T02:47:17.505Z,8.00
2023-02-18T02:49:44.608Z,8.00
2023-02-18T02:52:30.867Z,8.00
2023-02-18T02:54:58.204Z,8.00
2023-02-18T02:57:25.548Z,8.00
2023-02-18T03:00:02.520Z,8.00
2023-02-18T03:03:10.844Z,8.00
2023-02-18T03:05:47.069Z,8.00
2023-02-18T03:08:35.508Z,8.00
2023-02-18T03:11:14.784Z,8.00
2023-02-18T03:13:58.217Z,8.00
2023-02-18T03:16:33.988Z,8.00
2023-02-18T03:19:13.894Z,7.90
2023-02-18T03:21:49.897Z,7.90
2023-02-18T03:24:30.227Z,8.00
2023-02-18T03:27:03.380Z,7.90
2023-02-18T03:29:31.280Z,7.90
2023-02-18T03:32:02.344Z,7.90
2023-02-18T03:34:31.905Z,7.90
2023-02-18T03:37:01.501Z,7.90
2023-02-18T03:39:32.400Z,8.00
2023-02-18T03:42:00.034Z,7.90
2023-02-18T03:44:27.289Z,7.90
2023-02-18T03:46:54.627Z,7.90
2023-02-18T03:49:21.910Z,7.90
2023-02-18T03:51:49.432Z,7.90
2023-02-18T03:54:16.741Z,8.00
2023-02-18T03:56:44.147Z,8.00
2023-02-18T03:59:12.768Z,7.90
2023-02-18T04:01:40.305Z,7.90
2023-02-18T04:04:07.448Z,7.90
2023-02-18T04:06:34.855Z,8.00
2023-02-18T04:09:02.707Z,8.00
2023-02-18T04:11:29.838Z,8.00
2023-02-18T04:13:57.041Z,8.00
2023-02-18T04:16:24.168Z,8.00
2023-02-18T04:18:51.396Z,8.10
2023-02-18T04:21:18.582Z,8.20
2023-02-18T04:23:45.709Z,8.20
2023-02-18T04:26:12.897Z,8.30
2023-02-18T04:28:40.306Z,8.40
2023-02-18T04:31:07.582Z,8.50
2023-02-18T04:33:34.814Z,8.50
2023-02-18T04:36:02.054Z,8.60
2023-02-18T04:38:29.548Z,8.60
2023-02-18T04:40:56.658Z,8.60
2023-02-18T04:43:23.841Z,8.60
2023-02-18T04:45:51.060Z,8.70
2023-02-18T04:48:18.210Z,8.80
2023-02-18T04:50:45.603Z,8.80
2023-02-18T04:53:12.867Z,8.80
2023-02-18T04:55:40.006Z,8.70
2023-02-18T04:58:07.216Z,8.80
2023-02-18T05:00:34.379Z,8.80
2023-02-18T05:03:01.517Z,8.80
2023-02-18T05:05:28.611Z,8.80
2023-02-18T05:07:55.825Z,8.80
2023-02-18T05:10:23.084Z,8.70
2023-02-18T05:12:50.325Z,8.70
2023-02-18T05:15:17.489Z,8.80
2023-02-18T05:17:44.842Z,8.80
2023-02-18T05:20:12.710Z,8.80
2023-02-18T05:22:40.065Z,8.80
2023-02-18T05:25:07.700Z,8.80
2023-02-18T05:27:35.255Z,8.80
2023-02-18T05:30:02.486Z,8.90
2023-02-18T05:32:29.619Z,8.90
2023-02-18T05:34:56.818Z,8.90
2023-02-18T05:37:24.339Z,9.00
2023-02-18T05:39:51.482Z,9.00
2023-02-18T05:42:18.810Z,8.90
2023-02-18T05:44:46.073Z,8.90
2023-02-18T05:47:13.834Z,8.90
2023-02-18T05:49:42.328Z,9.00
2023-02-18T05:52:10.958Z,9.10
2023-02-18T05:54:38.696Z,9.10
2023-02-18T05:57:06.146Z,9.10
2023-02-18T05:59:33.236Z,9.10
2023-02-18T06:02:00.689Z,9.20
2023-02-18T06:04:27.736Z,9.20
2023-02-18T06:06:54.980Z,9.30
2023-02-18T06:09:22.697Z,9.40
2023-02-18T06:11:49.826Z,9.40
2023-02-18T06:14:17.205Z,9.50
2023-02-18T06:16:44.339Z,9.40
2023-02-18T06:19:11.359Z,9.40
2023-02-18T06:21:38.459Z,9.40
2023-02-18T06:24:05.780Z,9.40
2023-02-18T06:26:34.279Z,9.40
2023-02-18T06:29:01.270Z,9.60
2023-02-18T06:31:28.399Z,9.60
2023-02-18T06:33:55.537Z,9.50
2023-02-18T06:36:22.624Z,9.60
2023-02-18T06:38:49.876Z,9.70
2023-02-18T06:41:17.092Z,9.80
2023-02-18T06:43:44.071Z,9.80
2023-02-18T06:46:11.572Z,9.90
2023-02-18T06:48:39.047Z,9.90
2023-02-18T06:51:06.240Z,9.90
2023-02-18T06:53:33.405Z,10.00
2023-02-18T06:56:00.447Z,9.80
2023-02-18T06:58:27.550Z,9.80
2023-02-18T07:00:54.599Z,9.90
2023-02-18T07:03:22.026Z,9.90
2023-02-18T07:05:49.155Z,10.00
2023-02-18T07:08:16.454Z,10.00
2023-02-18T07:10:43.522Z,10.00
2023-02-18T07:13:10.750Z,10.10
2023-02-18T07:15:38.031Z,10.20
2023-02-18T07:18:05.670Z,10.10
2023-02-18T07:20:32.879Z,10.10
2023-02-18T07:23:00.193Z,10.10
2023-02-18T07:25:27.467Z,10.20
2023-02-18T07:27:54.507Z,10.20
2023-02-18T07:30:21.836Z,10.20
2023-02-18T07:32:49.068Z,10.20
2023-02-18T07:35:17.030Z,10.30
2023-02-18T07:37:48.789Z,10.30
2023-02-18T07:40:20.017Z,10.40
2023-02-18T07:42:47.509Z,10.40
2023-02-18T07:45:15.393Z,10.40
2023-02-18T07:47:42.573Z,10.50
2023-02-18T07:50:10.530Z,10.50
2023-02-18T07:52:37.721Z,10.40
2023-02-18T07:55:05.280Z,10.50
2023-02-18T07:57:32.319Z,10.50
2023-02-18T07:59:59.314Z,10.50
2023-02-18T08:02:26.553Z,10.50
2023-02-18T08:04:53.679Z,10.60
2023-02-18T08:07:22.939Z,10.70
2023-02-18T08:09:50.837Z,10.70
2023-02-18T08:12:23.794Z,10.70
2023-02-18T08:14:51.274Z,10.80
2023-02-18T08:17:18.315Z,10.80
2023-02-18T08:19:45.399Z,10.90
2023-02-18T08:22:12.419Z,10.90
2023-02-18T08:24:39.538Z,10.90
2023-02-18T08:27:06.561Z,10.90
2023-02-18T08:29:33.627Z,11.00
2023-02-18T08:32:00.683Z,11.10
2023-02-18T08:34:27.822Z,11.20
2023-02-18T08:36:55.046Z,11.20
2023-02-18T08:39:22.158Z,11.30
2023-02-18T08:41:49.233Z,11.30
2023-02-18T08:44:16.303Z,11.30
2023-02-18T08:46:43.394Z,11.30
2023-02-18T08:49:10.391Z,11.40
2023-02-18T08:51:37.547Z,11.40
2023-02-18T08:54:04.837Z,11.60
2023-02-18T08:56:32.719Z,11.60
2023-02-18T08:58:59.953Z,11.70
2023-02-18T09:01:27.163Z,11.80
2023-02-18T09:03:54.514Z,11.90
2023-02-18T09:06:21.745Z,12.00
2023-02-18T09:08:48.863Z,12.10
2023-02-18T09:11:16.264Z,12.10
2023-02-18T09:13:43.461Z,12.10
2023-02-18T09:16:18.380Z,12.10
2023-02-18T09:18:46.532Z,12.20
2023-02-18T09:21:15.897Z,12.30
2023-02-18T09:23:43.004Z,12.30
2023-02-18T09:26:14.391Z,12.30
2023-02-18T09:28:41.803Z,12.30
2023-02-18T09:31:13.118Z,12.30
2023-02-18T09:33:44.832Z,12.30
2023-02-18T09:36:13.386Z,12.40
2023-02-18T09:38:40.446Z,12.50
2023-02-18T09:41:25.497Z,12.50
2023-02-18T09:43:57.272Z,12.50
2023-02-18T09:46:33.006Z,12.60
2023-02-18T09:49:04.827Z,12.70
2023-02-18T09:51:31.991Z,12.70
2023-02-18T09:53:59.396Z,12.70
2023-02-18T09:56:36.010Z,12.70
2023-02-18T09:59:06.105Z,12.70
2023-02-18T10:01:37.014Z,12.70
2023-02-18T10:04:19.346Z,12.70
2023-02-18T10:09:25.365Z,12.80
2023-02-18T10:11:56.838Z,12.80
2023-02-18T10:14:25.723Z,12.80
2023-02-18T10:16:53.900Z,12.80
2023-02-18T10:19:35.458Z,12.80
2023-02-18T10:22:06.290Z,12.80
2023-02-18T10:24:40.456Z,12.80
2023-02-18T10:27:08.852Z,12.90
2023-02-18T10:29:36.628Z,12.90
2023-02-18T10:32:19.275Z,12.90
2023-02-18T10:35:00.363Z,12.90
2023-02-18T10:37:41.445Z,13.00
2023-02-18T10:40:28.029Z,13.00
2023-02-18T10:43:17.389Z,12.90
2023-02-18T10:45:52.587Z,12.90
2023-02-18T10:48:28.843Z,12.80
2023-02-18T10:50:56.602Z,12.80
2023-02-18T10:53:44.137Z,12.90
2023-02-18T10:56:48.558Z,12.90
2023-02-18T10:59:26.231Z,13.00
2023-02-18T11:02:17.370Z,13.00
2023-02-18T11:04:46.076Z,12.90
2023-02-18T11:07:16.416Z,13.00
2023-02-18T11:09:48.773Z,13.10
2023-02-18T11:12:18.065Z,13.10
2023-02-18T11:14:47.833Z,13.20
2023-02-18T11:17:19.848Z,13.20
2023-02-18T11:19:56.284Z,13.20
2023-02-18T11:22:33.159Z,13.30
2023-02-18T11:25:02.873Z,13.30
2023-02-18T11:27:44.711Z,13.20
2023-02-18T11:30:37.220Z,13.20
2023-02-18T11:33:16.170Z,13.20
2023-02-18T11:35:50.974Z,13.20
2023-02-18T11:38:34.712Z,13.20
2023-02-18T11:41:08.296Z,13.20
2023-02-18T11:43:36.461Z,13.20
2023-02-18T11:46:16.838Z,13.20
2023-02-18T11:48:43.952Z,13.20
2023-02-18T11:51:27.058Z,13.20
2023-02-18T11:54:20.653Z,13.20
2023-02-18T11:57:00.312Z,13.20
2023-02-18T11:59:29.865Z,13.20
2023-02-18T12:02:06.321Z,13.20
2023-02-18T12:05:11.708Z,13.10
2023-02-18T12:07:49.971Z,13.10
2023-02-18T12:10:26.527Z,13.20
2023-02-18T12:13:05.618Z,13.30
2023-02-18T12:15:49.401Z,13.40
2023-02-18T12:18:36.856Z,13.30
2023-02-18T12:21:04.872Z,13.30
2023-02-18T12:23:34.972Z,13.30
2023-02-18T12:26:13.615Z,13.30
2023-02-18T12:29:19.690Z,13.40
2023-02-18T12:31:46.540Z,13.30
2023-02-18T12:34:23.275Z,13.30
2023-02-18T12:37:19.843Z,13.40
2023-02-18T12:40:14.265Z,13.40
2023-02-18T12:42:46.800Z,13.40
2023-02-18T12:45:35.937Z,13.30
2023-02-18T12:48:16.783Z,13.30
2023-02-18T12:50:49.708Z,13.40
2023-02-18T12:53:41.034Z,13.50
2023-02-18T12:56:11.260Z,13.60
2023-02-18T12:58:44.238Z,13.60
2023-02-18T13:01:38.609Z,13.70
2023-02-18T13:04:44.109Z,13.80
2023-02-18T13:07:36.015Z,13.90
2023-02-18T13:10:21.514Z,13.80
2023-02-18T13:13:02.257Z,13.70
2023-02-18T13:15:38.470Z,13.60
2023-02-18T13:18:12.490Z,13.60
2023-02-18T13:21:19.966Z,13.60
2023-02-18T13:23:58.524Z,13.60
2023-02-18T13:26:27.504Z,13.60
2023-02-18T13:29:18.382Z,13.60
2023-02-18T13:32:07.818Z,13.60
2023-02-18T13:34:53.686Z,13.40
2023-02-18T13:37:52.022Z,13.40
2023-02-18T13:40:22.885Z,13.40
2023-02-18T13:42:54.056Z,13.40
2023-02-18T13:45:27.871Z,13.50
2023-02-18T13:47:56.213Z,13.40
2023-02-18T13:50:23.264Z,13.40
2023-02-18T13:53:13.033Z,13.50
2023-02-18T13:55:46.106Z,13.50
2023-02-18T13:58:27.512Z,13.50
2023-02-18T14:01:03.095Z,13.50
2023-02-18T14:03:38.558Z,13.50
2023-02-18T14:06:26.361Z,13.50
2023-02-18T14:09:26.266Z,13.60
2023-02-18T14:11:57.972Z,13.60
2023-02-18T14:14:28.249Z,13.50
2023-02-18T14:17:20.009Z,13.60
2023-02-18T14:19:56.675Z,13.50
2023-02-18T14:22:33.856Z,13.40
2023-02-18T14:25:16.909Z,13.40
2023-02-18T14:27:44.837Z,13.30
2023-02-18T14:30:40.080Z,13.40
2023-02-18T14:33:15.772Z,13.40
2023-02-18T14:35:56.889Z,13.30
2023-02-18T14:38:45.545Z,13.30
2023-02-18T14:41:42.928Z,13.20
2023-02-18T14:44:21.699Z,13.10
2023-02-18T14:47:07.732Z,13.20
2023-02-18T14:49:43.640Z,13.20
2023-02-18T14:52:32.887Z,13.20
2023-02-18T14:55:02.359Z,13.20
2023-02-18T14:57:52.359Z,13.20
2023-02-18T15:00:22.243Z,13.20
2023-02-18T15:02:52.003Z,13.10
2023-02-18T15:05:24.386Z,13.10
2023-02-18T15:08:03.735Z,13.20
2023-02-18T15:10:40.672Z,13.10
2023-02-18T15:13:17.624Z,13.10
2023-02-18T15:15:46.795Z,13.10
2023-02-18T15:18:38.478Z,13.10
2023-02-18T15:21:07.901Z,13.10
2023-02-18T15:23:40.754Z,13.10
2023-02-18T15:26:14.861Z,13.00
2023-02-18T15:29:00.660Z,13.00
2023-02-18T15:31:36.924Z,13.00
2023-02-18T15:34:37.900Z,13.00
2023-02-18T15:37:14.050Z,13.00
2023-02-18T15:39:44.341Z,13.00
2023-02-18T15:42:25.835Z,12.90
2023-02-18T15:44:58.308Z,12.90
2023-02-18T15:47:25.944Z,13.00
2023-02-18T15:49:55.881Z,12.90
2023-02-18T15:52:33.150Z,12.90
2023-02-18T15:55:10.023Z,12.90
2023-02-18T15:57:37.499Z,12.90
2023-02-18T16:00:16.188Z,12.80
2023-02-18T16:02:59.375Z,12.80
2023-02-18T16:05:29.021Z,12.80
2023-02-18T16:08:12.107Z,12.70
2023-02-18T16:10:54.609Z,12.70
2023-02-18T16:13:22.274Z,12.70
2023-02-18T16:15:52.189Z,12.60
2023-02-18T16:18:41.580Z,12.70
2023-02-18T16:21:20.422Z,12.60
2023-02-18T16:23:59.558Z,12.60
2023-02-18T16:26:43.360Z,12.60
2023-02-18T16:29:21.101Z,12.60
2023-02-18T16:31:48.407Z,12.60
2023-02-18T16:34:15.448Z,12.50
2023-02-18T16:37:02.601Z,12.50
2023-02-18T16:39:33.378Z,12.50
2023-02-18T16:42:00.410Z,12.50
2023-02-18T16:44:27.451Z,12.50
2023-02-18T16:46:54.523Z,12.40
2023-02-18T16:49:21.748Z,12.40
2023-02-18T16:51:49.226Z,12.40
2023-02-18T16:54:17.807Z,12.40
2023-02-18T16:56:45.290Z,12.30
2023-02-18T16:59:12.785Z,12.30
2023-02-18T17:01:44.845Z,12.30
2023-02-18T17:04:14.901Z,12.30
2023-02-18T17:06:43.629Z,12.30
2023-02-18T17:09:16.916Z,12.30
2023-02-18T17:11:49.563Z,12.20
2023-02-18T17:14:19.240Z,12.20
2023-02-18T17:16:48.069Z,12.20
2023-02-18T17:19:16.152Z,12.10
2023-02-18T17:21:43.482Z,12.10
2023-02-18T17:24:19.653Z,12.20
2023-02-18T17:26:47.528Z,12.10
2023-02-18T17:29:15.566Z,12.10
2023-02-18T17:31:47.118Z,12.10
2023-02-18T17:34:30.908Z,12.10
2023-02-18T17:36:58.074Z,12.10
2023-02-18T17:39:26.368Z,12.10
2023-02-18T17:41:53.888Z,12.10
2023-02-18T17:44:24.001Z,12.00
2023-02-18T17:46:51.467Z,12.00
2023-02-18T17:49:18.665Z,12.10
2023-02-18T17:51:46.107Z,12.10
2023-02-18T17:54:15.463Z,12.00
2023-02-18T17:56:43.123Z,12.00
2023-02-18T17:59:10.160Z,12.00
2023-02-18T18:01:37.362Z,12.10
2023-02-18T18:04:04.586Z,12.00
2023-02-18T18:06:36.345Z,12.00
2023-02-18T18:09:03.703Z,12.00
2023-02-18T18:11:42.550Z,12.00
2023-02-18T18:14:15.184Z,12.00
2023-02-18T18:16:42.422Z,11.90
2023-02-18T18:19:09.413Z,12.00
2023-02-18T18:21:37.219Z,12.00
2023-02-18T18:24:04.707Z,12.00
2023-02-18T18:26:31.857Z,12.00
2023-02-18T18:28:59.071Z,12.00
2023-02-18T18:31:37.815Z,11.90
2023-02-18T18:34:05.030Z,11.90
2023-02-18T18:36:32.006Z,11.90
2023-02-18T18:38:59.043Z,11.90
2023-02-18T18:41:29.203Z,11.90
2023-02-18T18:43:56.250Z,11.90
2023-02-18T18:46:23.293Z,11.90
2023-02-18T18:48:51.287Z,11.90
2023-02-18T18:51:25.408Z,11.90
2023-02-18T18:53:52.498Z,11.90
2023-02-18T18:56:20.217Z,11.80
2023-02-18T18:58:47.524Z,11.60
2023-02-18T19:01:17.692Z,11.30
2023-02-18T19:03:46.801Z,11.20
2023-02-18T19:06:16.143Z,11.30
2023-02-18T19:08:43.863Z,11.30
2023-02-18T19:11:13.005Z,11.30
2023-02-18T19:13:43.491Z,11.20
2023-02-18T19:16:26.652Z,11.20
2023-02-18T19:18:54.860Z,11.10
2023-02-18T19:21:22.113Z,11.20
2023-02-18T19:23:49.259Z,11.20
2023-02-18T19:26:20.921Z,11.20
2023-02-18T19:28:47.935Z,11.10
2023-02-18T19:31:15.638Z,11.00
2023-02-18T19:33:46.103Z,11.00
2023-02-18T19:36:14.856Z,11.00
2023-02-18T19:38:41.976Z,11.00
2023-02-18T19:41:12.373Z,11.00
2023-02-18T19:43:44.168Z,10.90
2023-02-18T19:46:16.794Z,10.90
2023-02-18T19:48:49.305Z,10.90
2023-02-18T19:51:16.820Z,10.90
2023-02-18T19:53:44.147Z,11.00
2023-02-18T19:56:11.478Z,10.90
2023-02-18T19:58:42.047Z,10.80
2023-02-18T20:01:13.341Z,10.80
2023-02-18T20:03:40.499Z,10.80
2023-02-18T20:06:16.032Z,10.90
2023-02-18T20:08:43.435Z,11.00
2023-02-18T20:11:10.802Z,11.00
2023-02-18T20:13:38.096Z,11.00
2023-02-18T20:16:09.093Z,11.00
2023-02-18T20:18:36.351Z,10.80
2023-02-18T20:21:03.478Z,10.80
2023-02-18T20:23:30.530Z,10.80
2023-02-18T20:25:57.630Z,10.80
2023-02-18T20:28:24.624Z,10.80
2023-02-18T20:31:02.779Z,10.80
2023-02-18T20:33:30.300Z,10.70
2023-02-18T20:35:58.492Z,10.70
2023-02-18T20:38:25.529Z,10.70
2023-02-18T20:40:52.518Z,10.80
2023-02-18T20:43:19.526Z,10.90
2023-02-18T20:45:46.604Z,11.00
2023-02-18T20:48:13.683Z,11.10
2023-02-18T20:50:40.727Z,11.10
2023-02-18T20:53:07.978Z,11.00
2023-02-18T20:55:35.580Z,10.90
2023-02-18T20:58:02.733Z,10.80
2023-02-18T21:00:29.946Z,10.70
2023-02-18T21:02:57.477Z,10.70
2023-02-18T21:05:24.581Z,10.70
2023-02-18T21:07:51.628Z,10.70
2023-02-18T21:10:21.167Z,10.80
2023-02-18T21:12:48.306Z,10.70
2023-02-18T21:15:15.854Z,10.70
2023-02-18T21:17:42.858Z,10.60
2023-02-18T21:20:10.008Z,10.60
2023-02-18T21:22:37.015Z,10.70
2023-02-18T21:25:04.103Z,10.80
2023-02-18T21:27:31.383Z,10.80
2023-02-18T21:30:00.326Z,10.80
2023-02-18T21:32:27.551Z,10.90
2023-02-18T21:34:54.834Z,11.00
2023-02-18T21:37:21.973Z,10.80
2023-02-18T21:39:48.951Z,10.80
2023-02-18T21:42:16.026Z,10.80
2023-02-18T21:44:43.212Z,10.80
2023-02-18T21:47:11.501Z,10.80
2023-02-18T21:49:38.600Z,10.70
2023-02-18T21:52:08.714Z,10.80
2023-02-18T21:54:37.389Z,10.80
2023-02-18T21:57:06.156Z,10.90
2023-02-18T21:59:34.750Z,11.00
2023-02-18T22:02:03.533Z,11.00
2023-02-18T22:04:33.413Z,10.80
2023-02-18T22:07:01.357Z,10.80
2023-02-18T22:09:28.604Z,10.80
2023-02-18T22:11:56.026Z,10.80
2023-02-18T22:14:23.839Z,10.90
2023-02-18T22:16:51.082Z,10.80
2023-02-18T22:19:18.861Z,10.70
2023-02-18T22:21:46.770Z,10.70
2023-02-18T22:24:18.759Z,10.60
2023-02-18T22:26:46.825Z,10.60
2023-02-18T22:29:15.028Z,10.90
2023-02-18T22:31:42.863Z,11.30
2023-02-18T22:34:11.117Z,11.30
2023-02-18T22:36:38.599Z,11.20
2023-02-18T22:39:06.819Z,10.80
2023-02-18T22:41:34.702Z,10.70
2023-02-18T22:44:04.517Z,10.90
2023-02-18T22:46:33.439Z,10.80
2023-02-18T22:49:02.490Z,10.70
2023-02-18T22:51:33.369Z,10.70
2023-02-18T22:54:02.098Z,10.60
2023-02-18T22:56:30.138Z,10.60
2023-02-18T22:58:58.793Z,10.60
2023-02-18T23:01:30.481Z,10.50
2023-02-18T23:04:03.233Z,10.50
2023-02-18T23:06:30.545Z,10.40
2023-02-18T23:08:57.888Z,10.50
2023-02-18T23:11:25.839Z,10.50
2023-02-18T23:14:13.715Z,10.60
2023-02-18T23:17:00.094Z,10.60
2023-02-18T23:19:29.056Z,10.50
2023-02-18T23:21:56.555Z,10.70
2023-02-18T23:24:24.034Z,10.90
2023-02-18T23:26:51.897Z,11.10
2023-02-18T23:29:19.485Z,11.20
2023-02-18T23:31:46.771Z,11.30
2023-02-18T23:34:16.780Z,11.30
2023-02-18T23:36:44.835Z,11.30
2023-02-18T23:39:13.611Z,11.30
2023-02-18T23:41:40.873Z,11.40
2023-02-18T23:44:11.141Z,11.40
2023-02-18T23:46:39.318Z,11.40
2023-02-18T23:49:07.078Z,11.40
2023-02-18T23:51:34.443Z,11.30
2023-02-18T23:54:03.949Z,11.40
2023-02-18T23:56:31.334Z,11.40
2023-02-18T23:59:00.778Z,11.40
